createdAt,value
2018-09-17T00:02:00.666Z,101663.77
2018-09-17T00:04:29.870Z,101665.42
2018-09-17T00:06:58.829Z,101667.59
2018-09-17T00:09:28.067Z,101663.68
2018-09-17T00:11:57.338Z,101664.73
2018-09-17T00:14:26.345Z,101666.86
2018-09-17T00:16:55.361Z,101668.59
2018-09-17T00:19:24.553Z,101661.75
2018-09-17T00:21:53.534Z,101661.74
2018-09-17T00:24:22.666Z,101661.34
2018-09-17T00:26:51.768Z,101663.11
2018-09-17T00:29:20.926Z,101664.89
2018-09-17T00:31:49.893Z,101651.45
2018-09-17T00:34:19.089Z,101659.23
2018-09-17T00:36:48.054Z,101664.03
2018-09-17T00:39:17.588Z,101658.05
2018-09-17T00:41:46.584Z,101661.90
2018-09-17T00:44:15.716Z,101664.84
2018-09-17T00:46:45.108Z,101663.99
2018-09-17T00:49:14.099Z,101664.53
2018-09-17T00:51:43.387Z,101667.56
2018-09-17T00:54:12.392Z,101656.25
2018-09-17T00:56:41.435Z,101656.25
2018-09-17T00:59:10.403Z,101654.55
2018-09-17T01:01:39.919Z,101657.19
2018-09-17T01:04:09.036Z,101655.45
2018-09-17T01:06:38.014Z,101651.55
2018-09-17T01:09:07.850Z,101648.19
2018-09-17T01:11:37.065Z,101650.34
2018-09-17T01:14:06.350Z,101652.39
2018-09-17T01:16:35.302Z,101652.88
2018-09-17T01:19:04.494Z,101648.55
2018-09-17T01:21:33.675Z,101647.31
2018-09-17T01:24:02.893Z,101644.25
2018-09-17T01:26:31.885Z,101641.61
2018-09-17T01:29:01.078Z,101635.11
2018-09-17T01:31:30.210Z,101645.95
2018-09-17T01:33:59.208Z,101647.72
2018-09-17T01:36:28.265Z,101653.01
2018-09-17T01:38:57.446Z,101659.09
2018-09-17T01:41:26.698Z,101655.53
2018-09-17T01:43:56.116Z,101666.96
2018-09-17T01:46:25.299Z,101658.17
2018-09-17T01:48:54.756Z,101651.30
2018-09-17T01:51:24.156Z,101654.31
2018-09-17T01:53:53.351Z,101656.89
2018-09-17T01:56:22.742Z,101659.49
2018-09-17T01:58:51.918Z,101661.66
2018-09-17T02:01:20.875Z,101669.52
2018-09-17T02:03:49.873Z,101665.58
2018-09-17T02:06:19.085Z,101659.95
2018-09-17T02:08:48.283Z,101658.20
2018-09-17T02:11:17.386Z,101658.69
2018-09-17T02:13:46.707Z,101659.53
2018-09-17T02:16:15.936Z,101665.64
2018-09-17T02:18:45.186Z,101669.52
2018-09-17T02:21:14.326Z,101678.19
2018-09-17T02:23:43.490Z,101676.49
2018-09-17T02:26:12.675Z,101676.03
2018-09-17T02:28:41.666Z,101675.16
2018-09-17T02:31:10.663Z,101676.06
2018-09-17T02:33:39.649Z,101670.41
2018-09-17T02:36:08.611Z,101670.85
2018-09-17T02:38:37.583Z,101673.03
2018-09-17T02:41:06.558Z,101674.75
2018-09-17T02:43:35.530Z,101676.92
2018-09-17T02:46:04.718Z,101675.62
2018-09-17T02:48:33.742Z,101675.13
2018-09-17T02:51:02.707Z,101666.95
2018-09-17T02:53:31.765Z,101666.52
2018-09-17T02:56:00.719Z,101656.96
2018-09-17T02:58:29.704Z,101651.30
2018-09-17T03:00:58.724Z,101653.86
2018-09-17T03:03:27.728Z,101660.86
2018-09-17T03:05:57.419Z,101648.70
2018-09-17T03:08:26.404Z,101645.69
2018-09-17T03:10:55.393Z,101643.95
2018-09-17T03:13:24.938Z,101641.80
2018-09-17T03:15:55.671Z,101646.98
2018-09-17T03:18:41.911Z,101643.11
2018-09-17T03:21:10.955Z,101646.14
2018-09-17T03:23:40.185Z,101649.16
2018-09-17T03:26:09.163Z,101646.54
2018-09-17T03:28:38.849Z,101654.81
2018-09-17T03:31:07.822Z,101659.08
2018-09-17T03:33:37.205Z,101660.80
2018-09-17T03:36:06.817Z,101661.67
2018-09-17T03:38:42.130Z,101656.54
2018-09-17T03:41:11.776Z,101660.80
2018-09-17T03:43:42.143Z,101655.59
2018-09-17T03:46:11.069Z,101655.62
2018-09-17T03:48:40.854Z,101655.17
2018-09-17T03:51:10.388Z,101662.55
2018-09-17T03:53:39.896Z,101661.67
2018-09-17T03:56:08.893Z,101666.41
2018-09-17T03:58:37.917Z,101664.25
2018-09-17T04:01:07.632Z,101658.15
2018-09-17T04:03:36.845Z,101659.86
2018-09-17T04:06:05.817Z,101662.47
2018-09-17T04:08:35.057Z,101655.17
2018-09-17T04:11:04.194Z,101658.59
2018-09-17T04:13:33.439Z,101660.79
2018-09-17T04:16:02.705Z,101665.61
2018-09-17T04:18:31.889Z,101664.69
2018-09-17T04:21:00.911Z,101666.82
2018-09-17T04:23:33.778Z,101674.57
2018-09-17T04:26:03.801Z,101668.95
2018-09-17T04:28:33.168Z,101664.98
2018-09-17T04:31:02.166Z,101661.14
2018-09-17T04:33:33.647Z,101659.84
2018-09-17T04:36:02.725Z,101661.59
2018-09-17T04:38:31.720Z,101661.63
2018-09-17T04:41:00.718Z,101659.07
2018-09-17T04:43:30.033Z,101662.50
2018-09-17T04:45:59.176Z,101660.27
2018-09-17T04:48:28.444Z,101651.14
2018-09-17T04:50:57.477Z,101652.05
2018-09-17T04:53:26.457Z,101654.70
2018-09-17T04:55:56.134Z,101657.31
2018-09-17T04:58:25.307Z,101665.05
2018-09-17T05:00:54.476Z,101661.54
2018-09-17T05:03:23.456Z,101671.20
2018-09-17T05:05:52.455Z,101662.05
2018-09-17T05:08:22.017Z,101663.73
2018-09-17T05:10:51.410Z,101656.89
2018-09-17T05:13:20.439Z,101662.45
2018-09-17T05:15:49.447Z,101656.43
2018-09-17T05:18:18.440Z,101659.01
2018-09-17T05:20:47.511Z,101650.77
2018-09-17T05:23:16.459Z,101654.10
2018-09-17T05:25:45.643Z,101651.01
2018-09-17T05:28:14.903Z,101651.63
2018-09-17T05:30:43.929Z,101652.98
2018-09-17T05:33:12.959Z,101655.13
2018-09-17T05:35:42.020Z,101651.70
2018-09-17T05:38:11.066Z,101654.36
2018-09-17T05:40:40.067Z,101649.95
2018-09-17T05:43:09.193Z,101649.16
2018-09-17T05:45:38.453Z,101652.20
2018-09-17T05:48:07.675Z,101649.60
2018-09-17T05:50:36.908Z,101655.68
2018-09-17T05:53:06.120Z,101653.93
2018-09-17T05:55:35.382Z,101655.67
2018-09-17T05:58:04.354Z,101647.88
2018-09-17T06:00:33.861Z,101645.25
2018-09-17T06:03:02.928Z,101646.54
2018-09-17T06:05:31.994Z,101663.87
2018-09-17T06:08:01.018Z,101672.12
2018-09-17T06:10:30.286Z,101671.27
2018-09-17T06:12:59.342Z,101672.11
2018-09-17T06:15:28.643Z,101676.42
2018-09-17T06:17:57.975Z,101681.66
2018-09-17T06:20:28.467Z,101673.77
2018-09-17T06:22:57.490Z,101680.77
2018-09-17T06:25:26.968Z,101689.48
2018-09-17T06:27:56.182Z,101681.13
2018-09-17T06:30:25.159Z,101675.42
2018-09-17T06:32:54.160Z,101671.45
2018-09-17T06:35:23.152Z,101675.30
2018-09-17T06:37:52.162Z,101662.73
2018-09-17T06:40:21.383Z,101663.34
2018-09-17T06:42:50.437Z,101670.66
2018-09-17T06:45:19.435Z,101674.86
2018-09-17T06:47:48.545Z,101676.63
2018-09-17T06:50:17.776Z,101676.95
2018-09-17T06:52:46.750Z,101679.02
2018-09-17T06:55:16.184Z,101682.05
2018-09-17T06:57:45.276Z,101685.50
2018-09-17T07:00:14.334Z,101688.00
2018-09-17T07:02:43.534Z,101688.86
2018-09-17T07:05:12.809Z,101694.86
2018-09-17T07:07:41.781Z,101694.33
2018-09-17T07:10:11.592Z,101689.42
2018-09-17T07:12:40.590Z,101687.66
2018-09-17T07:15:09.724Z,101688.49
2018-09-17T07:17:38.917Z,101693.61
2018-09-17T07:20:07.922Z,101697.83
2018-09-17T07:22:36.937Z,101696.41
2018-09-17T07:25:05.944Z,101700.40
2018-09-17T07:27:34.993Z,101696.64
2018-09-17T07:30:04.088Z,101689.03
2018-09-17T07:32:33.418Z,101686.73
2018-09-17T07:35:02.424Z,101682.17
2018-09-17T07:37:31.419Z,101681.06
2018-09-17T07:40:00.409Z,101686.83
2018-09-17T07:42:29.593Z,101685.06
2018-09-17T07:44:58.597Z,101689.20
2018-09-17T07:47:27.972Z,101685.64
2018-09-17T07:49:56.996Z,101689.16
2018-09-17T07:52:26.253Z,101685.61
2018-09-17T07:54:55.463Z,101682.99
2018-09-17T07:57:24.474Z,101684.80
2018-09-17T07:59:53.634Z,101684.11
2018-09-17T08:02:24.597Z,101685.79
2018-09-17T08:04:53.673Z,101685.24
2018-09-17T08:07:22.712Z,101687.64
2018-09-17T08:09:51.869Z,101683.17
2018-09-17T08:12:20.935Z,101681.63
2018-09-17T08:14:49.991Z,101688.17
2018-09-17T08:17:19.524Z,101684.88
2018-09-17T08:19:49.619Z,101683.98
2018-09-17T08:22:18.731Z,101679.69
2018-09-17T08:24:47.741Z,101677.34
2018-09-17T08:27:16.735Z,101676.08
2018-09-17T08:29:46.160Z,101675.73
2018-09-17T08:32:15.143Z,101674.92
2018-09-17T08:34:44.123Z,101680.16
2018-09-17T08:37:13.335Z,101678.43
2018-09-17T08:39:42.374Z,101668.98
2018-09-17T08:42:11.726Z,101669.48
2018-09-17T08:44:40.766Z,101676.45
2018-09-17T08:47:10.327Z,101677.13
2018-09-17T08:49:39.326Z,101680.08
2018-09-17T08:52:08.418Z,101682.22
2018-09-17T08:54:42.555Z,101678.48
2018-09-17T08:57:16.790Z,101689.45
2018-09-17T08:59:50.858Z,101687.34
2018-09-17T09:02:25.653Z,101692.27
2018-09-17T09:04:55.118Z,101696.12
2018-09-17T09:07:29.511Z,101686.77
2018-09-17T09:10:03.952Z,101693.72
2018-09-17T09:12:38.357Z,101687.53
2018-09-17T09:15:12.807Z,101692.82
2018-09-17T09:17:41.819Z,101688.96
2018-09-17T09:20:10.811Z,101690.67
2018-09-17T09:22:40.009Z,101689.81
2018-09-17T09:25:09.011Z,101696.73
2018-09-17T09:27:38.030Z,101699.10
2018-09-17T09:30:06.998Z,101700.98
2018-09-17T09:32:36.221Z,101693.72
2018-09-17T09:35:05.291Z,101681.98
2018-09-17T09:37:34.631Z,101686.05
2018-09-17T09:40:03.643Z,101687.74
2018-09-17T09:42:32.865Z,101674.53
2018-09-17T09:45:02.285Z,101672.53
2018-09-17T09:47:31.527Z,101666.12
2018-09-17T09:50:00.512Z,101669.83
2018-09-17T09:52:29.509Z,101661.44
2018-09-17T09:54:59.283Z,101654.60
2018-09-17T09:57:28.322Z,101648.42
2018-09-17T09:59:57.346Z,101648.88
2018-09-17T10:02:35.650Z,101646.93
2018-09-17T10:05:05.802Z,101639.31
2018-09-17T10:07:35.025Z,101636.97
2018-09-17T10:10:09.325Z,101645.39
2018-09-17T10:12:43.891Z,101635.34
2018-09-17T10:15:19.539Z,101635.47
2018-09-17T10:17:53.665Z,101633.66
2018-09-17T10:20:22.911Z,101633.49
2018-09-17T10:22:51.886Z,101641.34
2018-09-17T10:25:20.938Z,101636.31
2018-09-17T10:27:50.120Z,101629.66
2018-09-17T10:30:19.378Z,101626.63
2018-09-17T10:32:48.736Z,101620.69
2018-09-17T10:35:17.827Z,101615.44
2018-09-17T10:37:47.078Z,101613.58
2018-09-17T10:40:16.113Z,101619.77
2018-09-17T10:42:45.118Z,101622.94
2018-09-17T10:45:14.341Z,101614.42
2018-09-17T10:47:43.825Z,101607.09
2018-09-17T10:50:12.913Z,101609.70
2018-09-17T10:52:42.147Z,101608.41
2018-09-17T10:55:11.226Z,101599.98
2018-09-17T10:57:40.231Z,101603.37
2018-09-17T11:00:09.313Z,101597.86
2018-09-17T11:02:38.511Z,101592.61
2018-09-17T11:05:07.519Z,101598.23
2018-09-17T11:07:36.490Z,101587.15
2018-09-17T11:10:06.108Z,101584.59
2018-09-17T11:12:35.490Z,101578.06
2018-09-17T11:15:05.227Z,101574.11
2018-09-17T11:17:34.288Z,101576.36
2018-09-17T11:20:03.260Z,101576.64
2018-09-17T11:22:32.251Z,101574.52
2018-09-17T11:25:01.285Z,101577.61
2018-09-17T11:27:30.270Z,101571.80
2018-09-17T11:29:59.234Z,101568.78
2018-09-17T11:32:28.215Z,101573.13
2018-09-17T11:34:57.319Z,101561.82
2018-09-17T11:37:26.626Z,101569.09
2018-09-17T11:39:55.877Z,101569.92
2018-09-17T11:42:24.866Z,101566.72
2018-09-17T11:44:53.829Z,101562.19
2018-09-17T11:47:22.808Z,101568.56
2018-09-17T11:49:51.820Z,101563.03
2018-09-17T11:52:20.918Z,101559.63
2018-09-17T11:54:49.922Z,101554.12
2018-09-17T11:57:18.916Z,101546.17
2018-09-17T11:59:47.878Z,101536.56
2018-09-17T12:02:22.184Z,101540.95
2018-09-17T12:04:58.923Z,101531.22
2018-09-17T12:07:33.685Z,101536.41
2018-09-17T12:10:03.171Z,101527.08
2018-09-17T12:12:32.225Z,101525.64
2018-09-17T12:15:01.464Z,101525.09
2018-09-17T12:17:30.613Z,101522.04
2018-09-17T12:19:59.615Z,101516.05
2018-09-17T12:22:28.585Z,101519.64
2018-09-17T12:24:57.626Z,101520.59
2018-09-17T12:27:26.624Z,101519.96
2018-09-17T12:29:55.669Z,101517.80
2018-09-17T12:32:24.642Z,101513.86
2018-09-17T12:34:53.620Z,101510.47
2018-09-17T12:37:22.895Z,101503.41
2018-09-17T12:39:51.905Z,101502.11
2018-09-17T12:42:20.962Z,101498.09
2018-09-17T12:44:50.039Z,101498.01
2018-09-17T12:47:19.161Z,101501.02
2018-09-17T12:49:48.147Z,101499.79
2018-09-17T12:52:17.358Z,101497.59
2018-09-17T12:54:46.619Z,101498.97
2018-09-17T12:57:15.786Z,101496.09
2018-09-17T12:59:45.227Z,101499.92
2018-09-17T13:02:14.302Z,101498.86
2018-09-17T13:04:43.571Z,101494.13
2018-09-17T13:07:12.582Z,101487.20
2018-09-17T13:09:41.933Z,101483.50
2018-09-17T13:12:11.029Z,101478.42
2018-09-17T13:14:40.091Z,101478.52
2018-09-17T13:17:09.058Z,101476.28
2018-09-17T13:19:38.365Z,101473.80
2018-09-17T13:22:07.483Z,101470.42
2018-09-17T13:24:36.850Z,101462.86
2018-09-17T13:27:05.870Z,101463.45
2018-09-17T13:29:35.145Z,101466.78
2018-09-17T13:32:04.318Z,101459.61
2018-09-17T13:34:33.283Z,101459.91
2018-09-17T13:37:02.396Z,101454.84
2018-09-17T13:39:31.687Z,101447.40
2018-09-17T13:42:00.983Z,101452.38
2018-09-17T13:44:30.593Z,101447.74
2018-09-17T13:46:59.954Z,101444.45
2018-09-17T13:49:28.998Z,101445.15
2018-09-17T13:51:58.552Z,101449.91
2018-09-17T13:54:27.843Z,101449.48
2018-09-17T13:56:57.054Z,101444.39
2018-09-17T13:59:26.067Z,101446.95
2018-09-17T14:01:55.146Z,101437.19
2018-09-17T14:04:24.686Z,101444.44
2018-09-17T14:06:53.530Z,101447.28
2018-09-17T14:09:22.504Z,101443.92
2018-09-17T14:11:51.801Z,101445.39
2018-09-17T14:14:20.814Z,101438.55
2018-09-17T14:16:50.168Z,101435.42
2018-09-17T14:19:19.497Z,101431.00
2018-09-17T14:21:48.509Z,101425.59
2018-09-17T14:24:17.469Z,101428.88
2018-09-17T14:26:46.494Z,101425.23
2018-09-17T14:29:16.117Z,101421.34
2018-09-17T14:31:50.527Z,101430.44
2018-09-17T14:34:19.872Z,101424.30
2018-09-17T14:36:49.482Z,101421.90
2018-09-17T14:39:18.630Z,101424.49
2018-09-17T14:41:47.970Z,101421.27
2018-09-17T14:44:17.042Z,101419.30
2018-09-17T14:46:46.144Z,101413.78
2018-09-17T14:49:15.439Z,101413.63
2018-09-17T14:51:45.052Z,101412.94
2018-09-17T14:54:14.167Z,101409.91
2018-09-17T14:56:43.135Z,101404.47
2018-09-17T14:59:12.193Z,101411.15
2018-09-17T15:01:41.392Z,101404.06
2018-09-17T15:04:10.267Z,101406.69
2018-09-17T15:06:39.235Z,101404.98
2018-09-17T15:09:09.216Z,101403.42
2018-09-17T15:11:38.181Z,101401.81
2018-09-17T15:14:07.349Z,101402.72
2018-09-17T15:16:36.571Z,101402.95
2018-09-17T15:19:06.527Z,101401.53
2018-09-17T15:21:35.701Z,101395.11
2018-09-17T15:24:05.084Z,101389.66
2018-09-17T15:26:34.208Z,101391.92
2018-09-17T15:29:03.187Z,101390.53
2018-09-17T15:31:32.195Z,101387.55
2018-09-17T15:34:01.214Z,101385.84
2018-09-17T15:36:30.390Z,101388.55
2018-09-17T15:38:59.392Z,101391.78
2018-09-17T15:41:28.532Z,101388.28
2018-09-17T15:43:57.821Z,101384.66
2018-09-17T15:46:27.028Z,101377.12
2018-09-17T15:48:56.029Z,101368.68
2018-09-17T15:51:25.031Z,101373.96
2018-09-17T15:53:54.264Z,101374.37
2018-09-17T15:56:25.966Z,101372.78
2018-09-17T15:58:58.499Z,101373.91
2018-09-17T16:01:27.650Z,101368.63
2018-09-17T16:03:57.102Z,101375.31
2018-09-17T16:06:26.372Z,101375.61
2018-09-17T16:08:55.678Z,101369.92
2018-09-17T16:11:24.871Z,101373.36
2018-09-17T16:13:53.864Z,101376.66
2018-09-17T16:16:22.876Z,101379.10
2018-09-17T16:18:51.867Z,101374.09
2018-09-17T16:21:20.837Z,101377.94
2018-09-17T16:23:49.858Z,101384.36
2018-09-17T16:26:19.387Z,101381.45
2018-09-17T16:28:48.579Z,101384.07
2018-09-17T16:31:17.553Z,101383.27
2018-09-17T16:33:46.739Z,101384.77
2018-09-17T16:36:15.745Z,101383.06
2018-09-17T16:38:44.830Z,101387.69
2018-09-17T16:41:14.109Z,101389.88
2018-09-17T16:43:43.110Z,101389.45
2018-09-17T16:46:12.442Z,101393.30
2018-09-17T16:48:41.638Z,101402.36
2018-09-17T16:51:12.564Z,101403.63
2018-09-17T16:53:41.616Z,101402.53
2018-09-17T16:56:10.784Z,101408.22
2018-09-17T16:58:40.086Z,101405.02
2018-09-17T17:01:09.112Z,101404.80
2018-09-17T17:03:38.179Z,101417.58
2018-09-17T17:06:07.403Z,101419.32
2018-09-17T17:08:36.670Z,101412.69
2018-09-17T17:11:06.157Z,101417.70
2018-09-17T17:13:35.110Z,101420.97
2018-09-17T17:16:04.322Z,101426.02
2018-09-17T17:18:33.303Z,101422.92
2018-09-17T17:21:02.817Z,101420.11
2018-09-17T17:23:32.043Z,101426.48
2018-09-17T17:26:01.442Z,101429.39
2018-09-17T17:28:30.646Z,101424.27
2018-09-17T17:30:59.606Z,101426.67
2018-09-17T17:33:28.589Z,101427.22
2018-09-17T17:35:57.628Z,101422.14
2018-09-17T17:38:26.622Z,101419.86
2018-09-17T17:40:55.846Z,101419.66
2018-09-17T17:43:25.086Z,101424.22
2018-09-17T17:45:54.120Z,101426.66
2018-09-17T17:48:23.309Z,101425.22
2018-09-17T17:50:52.505Z,101426.84
2018-09-17T17:53:24.537Z,101435.39
2018-09-17T17:55:53.560Z,101438.59
2018-09-17T17:58:25.919Z,101441.61
2018-09-17T18:00:54.864Z,101437.91
2018-09-17T18:03:23.817Z,101446.33
2018-09-17T18:05:52.788Z,101442.05
2018-09-17T18:08:21.769Z,101447.41
2018-09-17T18:10:50.714Z,101449.47
2018-09-17T18:13:21.866Z,101451.44
2018-09-17T18:15:50.984Z,101458.67
2018-09-17T18:18:21.031Z,101451.73
2018-09-17T18:20:51.913Z,101457.55
2018-09-17T18:23:23.371Z,101454.72
2018-09-17T18:25:53.174Z,101455.83
2018-09-17T18:28:22.222Z,101461.58
2018-09-17T18:30:51.413Z,101458.68
2018-09-17T18:33:21.219Z,101460.09
2018-09-17T18:35:50.291Z,101453.73
2018-09-17T18:38:19.338Z,101454.20
2018-09-17T18:40:48.301Z,101452.06
2018-09-17T18:43:17.272Z,101454.34
2018-09-17T18:45:46.450Z,101455.81
2018-09-17T18:48:17.956Z,101455.51
2018-09-17T18:50:48.240Z,101457.00
2018-09-17T18:53:17.303Z,101458.77
2018-09-17T18:55:46.335Z,101459.69
2018-09-17T18:58:15.327Z,101453.02
2018-09-17T19:00:44.332Z,101453.53
2018-09-17T19:03:23.290Z,101454.56
2018-09-17T19:05:52.338Z,101455.22
2018-09-17T19:08:21.308Z,101458.70
2018-09-17T19:10:50.696Z,101449.80
2018-09-17T19:13:19.663Z,101453.53
2018-09-17T19:15:55.470Z,101448.09
2018-09-17T19:18:24.570Z,101456.92
2018-09-17T19:20:54.154Z,101457.48
2018-09-17T19:23:28.238Z,101457.48
2018-09-17T19:25:57.284Z,101452.49
2018-09-17T19:28:31.522Z,101450.45
2018-09-17T19:31:00.490Z,101451.74
2018-09-17T19:33:29.751Z,101448.16
2018-09-17T19:35:58.801Z,101446.84
2018-09-17T19:38:33.210Z,101450.22
2018-09-17T19:41:02.176Z,101444.91
2018-09-17T19:43:31.168Z,101438.92
2018-09-17T19:46:05.570Z,101442.50
2018-09-17T19:48:34.755Z,101449.59
2018-09-17T19:51:09.238Z,101447.17
2018-09-17T19:53:38.218Z,101445.48
2018-09-17T19:56:07.491Z,101440.59
2018-09-17T19:58:41.506Z,101443.77
2018-09-17T20:01:10.468Z,101443.57
2018-09-17T20:03:39.722Z,101438.66
2018-09-17T20:06:15.718Z,101443.41
2018-09-17T20:08:44.677Z,101439.26
2018-09-17T20:11:13.868Z,101442.44
2018-09-17T20:13:42.834Z,101440.36
2018-09-17T20:16:11.849Z,101439.98
2018-09-17T20:18:40.841Z,101442.61
2018-09-17T20:21:10.033Z,101441.84
2018-09-17T20:23:39.030Z,101439.73
2018-09-17T20:26:08.451Z,101440.08
2018-09-17T20:28:37.470Z,101444.53
2018-09-17T20:31:06.899Z,101435.08
2018-09-17T20:33:36.925Z,101433.13
2018-09-17T20:36:06.192Z,101433.58
2018-09-17T20:38:35.432Z,101433.52
2018-09-17T20:41:04.394Z,101431.91
2018-09-17T20:43:33.618Z,101432.09
2018-09-17T20:46:02.801Z,101430.40
2018-09-17T20:48:31.826Z,101429.31
2018-09-17T20:51:00.811Z,101430.48
2018-09-17T20:53:29.995Z,101430.30
2018-09-17T20:55:59.305Z,101426.39
2018-09-17T20:58:30.003Z,101425.80
2018-09-17T21:00:59.386Z,101419.38
2018-09-17T21:03:28.313Z,101421.88
2018-09-17T21:05:57.511Z,101426.91
2018-09-17T21:08:26.685Z,101428.17
2018-09-17T21:10:55.875Z,101425.09
2018-09-17T21:13:24.872Z,101425.92
2018-09-17T21:15:53.824Z,101423.58
2018-09-17T21:18:22.892Z,101420.25
2018-09-17T21:20:53.425Z,101423.86
2018-09-17T21:23:23.089Z,101429.95
2018-09-17T21:25:52.049Z,101417.84
2018-09-17T21:28:21.244Z,101426.03
2018-09-17T21:30:50.280Z,101424.85
2018-09-17T21:33:19.792Z,101424.52
2018-09-17T21:35:49.106Z,101423.08
2018-09-17T21:38:18.062Z,101418.14
2018-09-17T21:40:47.341Z,101430.92
2018-09-17T21:43:16.335Z,101427.60
2018-09-17T21:45:45.313Z,101423.73
2018-09-17T21:48:14.316Z,101420.69
2018-09-17T21:50:43.759Z,101418.76
2018-09-17T21:53:12.946Z,101419.67
2018-09-17T21:55:43.479Z,101423.30
2018-09-17T21:58:12.649Z,101415.89
2018-09-17T22:01:17.590Z,101416.48
2018-09-17T22:03:47.127Z,101416.87
2018-09-17T22:06:16.528Z,101413.44
2018-09-17T22:08:45.697Z,101419.63
2018-09-17T22:11:14.705Z,101415.24
2018-09-17T22:13:43.866Z,101411.53
2018-09-17T22:16:13.283Z,101408.80
2018-09-17T22:18:42.467Z,101407.03
2018-09-17T22:21:11.446Z,101407.03
2018-09-17T22:23:40.622Z,101401.77
2018-09-17T22:26:10.232Z,101408.73
2018-09-17T22:28:39.422Z,101404.92
2018-09-17T22:31:08.390Z,101402.01
2018-09-17T22:33:37.379Z,101410.77
2018-09-17T22:36:06.395Z,101408.84
2018-09-17T22:38:35.696Z,101409.05
2018-09-17T22:41:04.958Z,101415.20
2018-09-17T22:43:35.402Z,101413.63
2018-09-17T22:46:05.303Z,101406.77
2018-09-17T22:48:35.641Z,101409.64
2018-09-17T22:51:05.680Z,101408.00
2018-09-17T22:53:35.035Z,101407.16
2018-09-17T22:56:05.872Z,101400.16
2018-09-17T22:58:34.868Z,101396.44
2018-09-17T23:01:03.822Z,101399.36
2018-09-17T23:03:32.891Z,101399.35
2018-09-17T23:06:01.844Z,101397.20
2018-09-17T23:08:30.873Z,101401.42
2018-09-17T23:10:59.906Z,101403.64
2018-09-17T23:13:28.922Z,101398.42
2018-09-17T23:15:57.923Z,101400.84
2018-09-17T23:18:27.111Z,101394.44
2018-09-17T23:20:56.095Z,101397.05
2018-09-17T23:23:25.290Z,101390.78
2018-09-17T23:25:54.267Z,101394.03
2018-09-17T23:28:23.542Z,101394.50
2018-09-17T23:30:54.361Z,101391.95
2018-09-17T23:33:23.602Z,101390.17
2018-09-17T23:35:52.781Z,101392.81
2018-09-17T23:38:22.203Z,101401.03
2018-09-17T23:40:51.214Z,101395.94
2018-09-17T23:43:20.207Z,101394.63
2018-09-17T23:45:49.224Z,101395.19
2018-09-17T23:48:18.426Z,101387.37
2018-09-17T23:50:47.388Z,101398.31
2018-09-17T23:53:16.924Z,101389.91
2018-09-17T23:55:46.115Z,101385.99
2018-09-17T23:58:15.324Z,101386.11
